Time;durP1;ratioP1;P1;durP2;ratioP2;P2;SDS_P1;SDS_P2;PMS_P1;PMS_P2;Temp;Humidity;BMP_temperature;BMP_pressure;BME280_temperature;BME280_humidity;BME280_pressure;Samples;Min_cycle;Max_cycle;Signal;HPM_P1;HPM_P2
2021/06/14 00:00:57;;;;;;;7.97;2.60;;;;;;;;;;1908405;67;20079;-64
2021/06/14 00:03:23;;;;;;;4.97;3.17;;;;;;;;;;1908049;67;20151;-64
2021/06/14 00:05:48;;;;;;;2.65;2.45;;;;;;;;;;1908747;67;20096;-64
2021/06/14 00:08:17;;;;;;;5.93;3.03;;;;;;;;;;1909173;67;20084;-65
2021/06/14 00:10:45;;;;;;;4.00;2.63;;;;;;;;;;1908606;67;20080;-64
2021/06/14 00:13:11;;;;;;;5.25;2.80;;;;;;;;;;1908450;67;20104;-65
2021/06/14 00:15:37;;;;;;;4.13;2.80;;;;;;;;;;1908476;67;20151;-65
2021/06/14 00:18:05;;;;;;;3.13;2.45;;;;;;;;;;1907582;67;20195;-65
2021/06/14 00:20:30;;;;;;;4.72;2.95;;;;;;;;;;1908759;67;20083;-66
2021/06/14 00:22:56;;;;;;;4.72;2.70;;;;;;;;;;1907552;67;20095;-65
2021/06/14 00:25:24;;;;;;;3.78;2.78;;;;;;;;;;1907649;67;20096;-65
2021/06/14 00:27:50;;;;;;;4.03;2.70;;;;;;;;;;1908357;67;20110;-64
2021/06/14 00:30:23;;;;;;;5.43;3.15;;;;;;;;;;1910344;67;20541;-64
2021/06/14 00:32:48;;;;;;;7.65;2.95;;;;;;;;;;1908571;67;20088;-64
2021/06/14 00:35:14;;;;;;;6.28;2.70;;;;;;;;;;1907975;67;20111;-64
2021/06/14 00:37:39;;;;;;;4.70;2.58;;;;;;;;;;1909549;67;20088;-64
2021/06/14 00:40:05;;;;;;;7.75;3.83;;;;;;;;;;1907919;67;20079;-64
2021/06/14 00:42:31;;;;;;;6.15;2.58;;;;;;;;;;1908491;67;20091;-64
2021/06/14 00:44:56;;;;;;;5.55;2.50;;;;;;;;;;1908529;59;20091;-64
2021/06/14 00:47:22;;;;;;;4.90;2.80;;;;;;;;;;1908152;67;20530;-64
2021/06/14 00:49:47;;;;;;;5.47;2.97;;;;;;;;;;1908492;67;20123;-64
2021/06/14 00:52:13;;;;;;;5.65;2.45;;;;;;;;;;1911475;67;20088;-64
2021/06/14 00:54:39;;;;;;;8.70;3.03;;;;;;;;;;1906946;67;20092;-64
2021/06/14 00:57:04;;;;;;;6.00;2.55;;;;;;;;;;1908100;67;20100;-64
2021/06/14 00:59:30;;;;;;;6.97;2.17;;;;;;;;;;1906596;56;22018;-64
2021/06/14 01:01:55;;;;;;;3.53;2.03;;;;;;;;;;1902370;67;20081;-63
2021/06/14 01:04:21;;;;;;;5.32;2.13;;;;;;;;;;1902956;67;20080;-64
2021/06/14 01:06:48;;;;;;;5.57;2.35;;;;;;;;;;1902781;67;20504;-64
2021/06/14 01:09:14;;;;;;;5.05;2.17;;;;;;;;;;1902750;67;20085;-63
2021/06/14 01:11:53;;;;;;;3.20;2.05;;;;;;;;;;1902047;67;20081;-66
2021/06/14 01:14:45;;;;;;;3.88;2.03;;;;;;;;;;1903319;59;20102;-64
2021/06/14 01:17:29;;;;;;;5.78;2.38;;;;;;;;;;1902419;67;20139;-63
2021/06/14 01:20:13;;;;;;;2.78;1.63;;;;;;;;;;1902040;67;20097;-63
2021/06/14 01:23:00;;;;;;;3.55;1.67;;;;;;;;;;1901530;67;20089;-63
2021/06/14 01:25:58;;;;;;;3.75;1.83;;;;;;;;;;1902155;67;20493;-65
2021/06/14 01:28:25;;;;;;;2.90;1.77;;;;;;;;;;1901773;67;20088;-66
2021/06/14 01:30:52;;;;;;;3.70;1.75;;;;;;;;;;1902847;67;20092;-67
2021/06/14 01:33:22;;;;;;;2.92;1.88;;;;;;;;;;1902254;67;20136;-63
2021/06/14 01:35:53;;;;;;;2.35;1.60;;;;;;;;;;1902499;67;20088;-63
2021/06/14 01:38:22;;;;;;;3.15;1.90;;;;;;;;;;1903038;67;20653;-64
2021/06/14 01:40:51;;;;;;;4.68;1.90;;;;;;;;;;1904098;67;20092;-65
2021/06/14 01:43:19;;;;;;;3.03;1.75;;;;;;;;;;1902497;67;20401;-64
2021/06/14 01:45:50;;;;;;;2.90;1.90;;;;;;;;;;1903967;67;20142;-63
2021/06/14 01:48:18;;;;;;;4.78;1.70;;;;;;;;;;1901744;67;20292;-64
2021/06/14 01:50:45;;;;;;;3.40;1.60;;;;;;;;;;1901308;67;20093;-66
2021/06/14 01:53:11;;;;;;;2.38;1.60;;;;;;;;;;1902182;67;20089;-65
2021/06/14 01:55:38;;;;;;;3.35;1.60;;;;;;;;;;1902210;67;20100;-65
2021/06/14 01:58:04;;;;;;;2.88;1.75;;;;;;;;;;1903585;67;20115;-67
2021/06/14 02:00:30;;;;;;;4.80;1.80;;;;;;;;;;1901678;67;20256;-65
2021/06/14 02:02:55;;;;;;;3.53;1.80;;;;;;;;;;1902443;67;20076;-65
2021/06/14 02:05:24;;;;;;;4.50;1.58;;;;;;;;;;1903126;67;20100;-64
2021/06/14 02:07:51;;;;;;;3.83;1.70;;;;;;;;;;1903409;67;20215;-65
2021/06/14 02:10:18;;;;;;;5.05;1.77;;;;;;;;;;1901943;67;20116;-64
2021/06/14 02:12:46;;;;;;;7.00;2.10;;;;;;;;;;1902153;67;20487;-64
2021/06/14 02:15:12;;;;;;;3.30;1.80;;;;;;;;;;1902532;67;20104;-65
2021/06/14 02:17:41;;;;;;;2.47;1.60;;;;;;;;;;1902476;67;20107;-66
2021/06/14 02:20:09;;;;;;;6.03;1.92;;;;;;;;;;1901429;67;20212;-64
2021/06/14 02:22:36;;;;;;;4.70;1.58;;;;;;;;;;1901984;67;20132;-63
2021/06/14 02:25:06;;;;;;;5.30;2.30;;;;;;;;;;1902989;75;20524;-65
2021/06/14 02:27:31;;;;;;;2.80;1.83;;;;;;;;;;1902289;75;20392;-66
2021/06/14 02:29:57;;;;;;;3.50;3.00;;;;;;;;;;1902212;67;20081;-66
2021/06/14 02:32:23;;;;;;;4.88;3.58;;;;;;;;;;1902346;67;20088;-65
2021/06/14 02:34:49;;;;;;;3.53;2.92;;;;;;;;;;1902495;67;20092;-66
2021/06/14 02:37:16;;;;;;;3.30;2.00;;;;;;;;;;1901636;67;20145;-66
2021/06/14 02:39:46;;;;;;;2.63;1.30;;;;;;;;;;1901737;67;20081;-65
2021/06/14 02:42:12;;;;;;;3.08;1.38;;;;;;;;;;1902042;67;20516;-64
2021/06/14 02:44:38;;;;;;;2.80;0.98;;;;;;;;;;1901996;67;20093;-66
2021/06/14 02:47:08;;;;;;;3.22;1.00;;;;;;;;;;1902878;67;20215;-64
2021/06/14 02:49:34;;;;;;;7.20;1.15;;;;;;;;;;1901458;67;20120;-66
2021/06/14 02:52:02;;;;;;;2.55;1.08;;;;;;;;;;1901356;67;20085;-64
2021/06/14 02:54:37;;;;;;;11.05;2.20;;;;;;;;;;1901212;67;20081;-64
2021/06/14 02:57:05;;;;;;;2.10;1.00;;;;;;;;;;1902317;67;20099;-65
2021/06/14 02:59:32;;;;;;;2.78;1.10;;;;;;;;;;1902157;67;20093;-65
2021/06/14 03:01:59;;;;;;;0.90;0.90;;;;;;;;;;1902673;67;20107;-63
2021/06/14 03:04:26;;;;;;;1.05;0.80;;;;;;;;;;1902244;67;20081;-65
2021/06/14 03:06:53;;;;;;;1.20;1.10;;;;;;;;;;1901800;67;20089;-63
2021/06/14 03:09:20;;;;;;;2.50;1.03;;;;;;;;;;1902084;67;20093;-64
2021/06/14 03:11:46;;;;;;;1.30;1.00;;;;;;;;;;1902462;67;20611;-65
2021/06/14 03:14:14;;;;;;;2.67;1.25;;;;;;;;;;1903376;75;20089;-65
2021/06/14 03:16:43;;;;;;;2.33;1.20;;;;;;;;;;1902427;67;20081;-66
2021/06/14 03:19:10;;;;;;;1.63;1.33;;;;;;;;;;1901908;67;20104;-66
2021/06/14 03:21:37;;;;;;;2.15;1.25;;;;;;;;;;1902093;67;20100;-65
2021/06/14 03:24:03;;;;;;;1.73;1.25;;;;;;;;;;1902598;67;20143;-62
2021/06/14 03:26:34;;;;;;;1.10;0.80;;;;;;;;;;1903029;67;20089;-65
2021/06/14 03:29:00;;;;;;;0.90;0.80;;;;;;;;;;1903031;67;20077;-65
2021/06/14 03:31:27;;;;;;;0.77;0.60;;;;;;;;;;1902051;67;20428;-68
2021/06/14 03:33:54;;;;;;;0.50;0.50;;;;;;;;;;1902228;67;20119;-67
2021/06/14 03:36:22;;;;;;;0.38;0.30;;;;;;;;;;1902274;67;20162;-66
2021/06/14 03:38:50;;;;;;;0.75;0.50;;;;;;;;;;1902589;67;20105;-68
2021/06/14 03:41:16;;;;;;;1.10;0.47;;;;;;;;;;1902365;67;20089;-67
2021/06/14 03:43:42;;;;;;;0.20;0.20;;;;;;;;;;1902401;67;20432;-66
2021/06/14 03:46:08;;;;;;;0.10;0.10;;;;;;;;;;1903371;67;20100;-67
2021/06/14 03:48:34;;;;;;;0.25;0.15;;;;;;;;;;1901825;67;20400;-68
2021/06/14 03:50:59;;;;;;;0.20;0.10;;;;;;;;;;1902650;67;20200;-67
2021/06/14 03:53:31;;;;;;;0.17;0.10;;;;;;;;;;1902501;67;20136;-67
2021/06/14 03:55:59;;;;;;;0.10;0.10;;;;;;;;;;1902279;67;20152;-66
2021/06/14 03:58:25;;;;;;;0.20;0.10;;;;;;;;;;1901919;75;20505;-68
2021/06/14 04:00:51;;;;;;;0.10;0.10;;;;;;;;;;1901558;67;20081;-64
2021/06/14 04:03:16;;;;;;;1.55;0.10;;;;;;;;;;1904775;67;20385;-67
2021/06/14 04:05:42;;;;;;;0.10;0.10;;;;;;;;;;1903759;67;20165;-65
2021/06/14 04:08:09;;;;;;;0.10;0.10;;;;;;;;;;1904230;75;20073;-66
2021/06/14 04:10:35;;;;;;;0.10;0.10;;;;;;;;;;1902011;67;20132;-66
2021/06/14 04:13:00;;;;;;;0.10;0.10;;;;;;;;;;1901823;67;20166;-63
2021/06/14 04:15:25;;;;;;;0.20;0.10;;;;;;;;;;1901677;67;20535;-64
2021/06/14 04:17:51;;;;;;;1.67;0.10;;;;;;;;;;1901817;67;20084;-65
2021/06/14 04:20:17;;;;;;;0.22;0.10;;;;;;;;;;1902516;67;20691;-65
2021/06/14 04:22:42;;;;;;;0.10;0.10;;;;;;;;;;1902326;67;20104;-65
2021/06/14 04:25:09;;;;;;;0.10;0.10;;;;;;;;;;1901875;67;20521;-65
2021/06/14 04:27:34;;;;;;;0.10;0.10;;;;;;;;;;1902560;67;20525;-65
2021/06/14 04:30:00;;;;;;;0.10;0.10;;;;;;;;;;1902085;67;20077;-65
2021/06/14 04:32:25;;;;;;;0.15;0.15;;;;;;;;;;1904584;67;20107;-64
2021/06/14 04:34:54;;;;;;;0.52;0.20;;;;;;;;;;1901412;67;20400;-65
2021/06/14 04:37:20;;;;;;;0.10;0.10;;;;;;;;;;1903187;67;20220;-64
2021/06/14 04:39:46;;;;;;;0.30;0.10;;;;;;;;;;1903013;67;20077;-64
2021/06/14 04:42:11;;;;;;;0.20;0.10;;;;;;;;;;1903190;67;20084;-64
2021/06/14 04:44:37;;;;;;;0.30;0.20;;;;;;;;;;1903273;67;20096;-66
2021/06/14 04:47:02;;;;;;;1.38;0.10;;;;;;;;;;1903107;67;20084;-65
2021/06/14 04:49:28;;;;;;;0.40;0.13;;;;;;;;;;1903665;67;20100;-64
2021/06/14 04:51:53;;;;;;;0.77;0.32;;;;;;;;;;1903041;67;20154;-67
2021/06/14 04:54:19;;;;;;;0.10;0.10;;;;;;;;;;1903093;67;20139;-66
2021/06/14 04:56:45;;;;;;;1.15;0.20;;;;;;;;;;1904437;67;20088;-65
2021/06/14 04:59:10;;;;;;;0.20;0.10;;;;;;;;;;1902337;67;20097;-64
2021/06/14 05:01:36;;;;;;;0.10;0.10;;;;;;;;;;1902359;67;20146;-65
2021/06/14 05:04:01;;;;;;;1.35;0.47;;;;;;;;;;1902904;67;20081;-65
2021/06/14 05:06:27;;;;;;;0.50;0.20;;;;;;;;;;1903756;67;20081;-64
2021/06/14 05:08:52;;;;;;;0.13;0.13;;;;;;;;;;1902191;67;20103;-64
2021/06/14 05:11:18;;;;;;;0.38;0.20;;;;;;;;;;1902817;67;20504;-64
2021/06/14 05:13:43;;;;;;;0.20;0.20;;;;;;;;;;1901572;67;20099;-66
2021/06/14 05:16:09;;;;;;;0.88;0.20;;;;;;;;;;1903445;59;20077;-65
2021/06/14 05:18:34;;;;;;;1.65;0.30;;;;;;;;;;1902215;67;20077;-66
2021/06/14 05:21:00;;;;;;;2.55;0.28;;;;;;;;;;1902314;67;20151;-64
2021/06/14 05:23:26;;;;;;;1.17;0.30;;;;;;;;;;1903429;67;20088;-65
2021/06/14 05:25:51;;;;;;;1.65;0.30;;;;;;;;;;1902363;75;20081;-65
2021/06/14 05:28:17;;;;;;;0.70;0.28;;;;;;;;;;1902785;67;20123;-65
2021/06/14 05:30:42;;;;;;;2.15;0.38;;;;;;;;;;1901129;67;20092;-65
2021/06/14 05:33:08;;;;;;;1.35;0.30;;;;;;;;;;1901965;67;20097;-66
2021/06/14 05:35:33;;;;;;;0.57;0.30;;;;;;;;;;1902922;67;20088;-65
2021/06/14 05:37:59;;;;;;;3.05;0.40;;;;;;;;;;1901897;67;20424;-65
2021/06/14 05:40:25;;;;;;;2.15;0.40;;;;;;;;;;1902096;67;20092;-64
2021/06/14 05:42:50;;;;;;;2.05;0.60;;;;;;;;;;1904101;67;20100;-58
2021/06/14 05:45:17;;;;;;;3.20;0.45;;;;;;;;;;1902685;67;20492;-58
2021/06/14 05:47:43;;;;;;;3.80;0.60;;;;;;;;;;1901436;67;20089;-58
2021/06/14 05:50:09;;;;;;;3.28;0.38;;;;;;;;;;1902336;67;20092;-57
2021/06/14 05:52:35;;;;;;;1.50;0.40;;;;;;;;;;1901922;67;20400;-58
2021/06/14 05:55:00;;;;;;;5.78;0.40;;;;;;;;;;1901772;67;20081;-58
2021/06/14 05:57:26;;;;;;;5.35;0.40;;;;;;;;;;1903631;67;20080;-58
2021/06/14 05:59:51;;;;;;;4.82;0.82;;;;;;;;;;1901787;67;20089;-57
2021/06/14 06:02:17;;;;;;;6.75;0.95;;;;;;;;;;1902897;67;20413;-57
2021/06/14 06:04:42;;;;;;;3.03;0.50;;;;;;;;;;1903667;67;20108;-58
2021/06/14 06:07:08;;;;;;;4.07;0.90;;;;;;;;;;1903300;67;20093;-58
2021/06/14 06:09:33;;;;;;;6.38;0.95;;;;;;;;;;1903177;67;20093;-58
2021/06/14 06:11:59;;;;;;;2.83;0.80;;;;;;;;;;1902086;67;20085;-58
2021/06/14 06:14:24;;;;;;;4.70;1.77;;;;;;;;;;1902649;67;20154;-65
2021/06/14 06:16:50;;;;;;;4.82;0.95;;;;;;;;;;1902408;67;20088;-64
2021/06/14 06:19:16;;;;;;;4.72;0.70;;;;;;;;;;1902071;67;20076;-64
2021/06/14 06:21:42;;;;;;;2.00;0.63;;;;;;;;;;1902803;67;20725;-63
2021/06/14 06:24:08;;;;;;;4.15;0.60;;;;;;;;;;1902825;67;20100;-63
2021/06/14 06:26:34;;;;;;;5.38;0.88;;;;;;;;;;1902527;67;20214;-63
2021/06/14 06:28:59;;;;;;;2.75;0.82;;;;;;;;;;1901771;67;20080;-63
2021/06/14 06:31:25;;;;;;;8.30;1.10;;;;;;;;;;1903139;67;20092;-65
2021/06/14 06:33:51;;;;;;;6.43;1.17;;;;;;;;;;1901803;67;20145;-64
2021/06/14 06:36:16;;;;;;;7.85;1.00;;;;;;;;;;1902173;67;20089;-64
2021/06/14 06:38:42;;;;;;;6.40;1.25;;;;;;;;;;1902579;67;20080;-64
2021/06/14 06:41:08;;;;;;;7.60;0.90;;;;;;;;;;1901641;67;20089;-63
2021/06/14 06:43:35;;;;;;;5.07;1.17;;;;;;;;;;1902077;67;20089;-63
2021/06/14 06:46:01;;;;;;;8.52;1.35;;;;;;;;;;1901477;67;20095;-63
2021/06/14 06:48:29;;;;;;;7.75;0.77;;;;;;;;;;1902616;67;20081;-64
2021/06/14 06:50:55;;;;;;;15.88;2.38;;;;;;;;;;1902514;67;20228;-63
2021/06/14 06:53:20;;;;;;;5.30;0.70;;;;;;;;;;1903212;67;20432;-64
2021/06/14 06:55:46;;;;;;;10.25;1.30;;;;;;;;;;1903035;67;20511;-65
2021/06/14 06:58:11;;;;;;;3.78;0.73;;;;;;;;;;1901738;67;20163;-63
2021/06/14 07:00:37;;;;;;;3.72;0.80;;;;;;;;;;1902442;67;20084;-64
2021/06/14 07:03:04;;;;;;;6.03;1.10;;;;;;;;;;1902363;67;20439;-65
2021/06/14 07:05:29;;;;;;;8.70;0.75;;;;;;;;;;1902325;67;20346;-64
2021/06/14 07:07:54;;;;;;;4.72;0.77;;;;;;;;;;1901840;67;20328;-64
2021/06/14 07:10:20;;;;;;;6.72;0.75;;;;;;;;;;1902340;67;20093;-63
2021/06/14 07:12:46;;;;;;;5.25;1.00;;;;;;;;;;1902153;67;20084;-64
2021/06/14 07:15:12;;;;;;;4.90;0.77;;;;;;;;;;1904755;67;20100;-63
2021/06/14 07:17:43;;;;;;;5.13;1.35;;;;;;;;;;1901872;67;20088;-64
2021/06/14 07:20:12;;;;;;;5.27;0.90;;;;;;;;;;1903002;67;20097;-63
2021/06/14 07:22:38;;;;;;;3.17;1.00;;;;;;;;;;1902997;67;20084;-65
2021/06/14 07:25:06;;;;;;;3.33;1.05;;;;;;;;;;1903122;67;21103;-64
2021/06/14 07:27:32;;;;;;;3.97;0.90;;;;;;;;;;1903621;67;20107;-63
2021/06/14 07:29:59;;;;;;;1.35;0.88;;;;;;;;;;1902745;67;20081;-63
2021/06/14 07:32:24;;;;;;;1.70;0.80;;;;;;;;;;1902722;67;20640;-63
2021/06/14 07:34:50;;;;;;;3.85;0.82;;;;;;;;;;1901603;67;20131;-64
2021/06/14 07:37:18;;;;;;;2.40;1.00;;;;;;;;;;1902198;67;20383;-63
2021/06/14 07:39:44;;;;;;;2.20;0.70;;;;;;;;;;1902197;67;20092;-64
2021/06/14 07:42:10;;;;;;;3.65;0.70;;;;;;;;;;1902528;67;20138;-63
2021/06/14 07:44:35;;;;;;;2.22;0.60;;;;;;;;;;1902065;75;20084;-64
2021/06/14 07:47:01;;;;;;;1.42;0.40;;;;;;;;;;1903250;67;20528;-64
2021/06/14 07:49:26;;;;;;;2.40;0.57;;;;;;;;;;1902880;67;20092;-63
2021/06/14 07:51:52;;;;;;;3.58;0.60;;;;;;;;;;1901928;67;20080;-62
2021/06/14 07:54:18;;;;;;;5.47;0.70;;;;;;;;;;1903339;67;20155;-65
2021/06/14 07:56:45;;;;;;;3.53;0.50;;;;;;;;;;1903011;75;20358;-63
2021/06/14 07:59:11;;;;;;;4.38;0.70;;;;;;;;;;1903580;67;20085;-63
2021/06/14 08:01:37;;;;;;;2.28;0.65;;;;;;;;;;1903007;67;20092;-62
2021/06/14 08:04:03;;;;;;;2.03;0.65;;;;;;;;;;1903063;67;20080;-63
2021/06/14 08:06:28;;;;;;;4.43;0.77;;;;;;;;;;1903662;67;20102;-64
2021/06/14 08:08:55;;;;;;;3.28;0.73;;;;;;;;;;1902902;67;20096;-64
2021/06/14 08:11:22;;;;;;;3.50;0.68;;;;;;;;;;1903116;67;20158;-64
2021/06/14 08:13:47;;;;;;;3.92;0.60;;;;;;;;;;1904062;67;20089;-63
2021/06/14 08:16:13;;;;;;;5.18;0.98;;;;;;;;;;1903126;67;20104;-63
2021/06/14 08:19:00;;;;;;;2.75;0.77;;;;;;;;;;1902272;67;20101;-64
2021/06/14 08:26:35;;;;;;;5.68;0.85;;;;;;;;;;1904976;67;20306;-64
2021/06/14 08:29:02;;;;;;;3.00;0.70;;;;;;;;;;1902892;75;20148;-62
2021/06/14 08:31:30;;;;;;;7.15;0.98;;;;;;;;;;1901485;67;20077;-63
2021/06/14 08:33:56;;;;;;;6.70;1.20;;;;;;;;;;1902480;67;20099;-63
2021/06/14 08:36:22;;;;;;;9.32;0.90;;;;;;;;;;1903678;67;20088;-62
2021/06/14 08:38:49;;;;;;;5.07;1.05;;;;;;;;;;1902219;67;20603;-62
2021/06/14 08:41:19;;;;;;;6.82;1.13;;;;;;;;;;1902465;67;20449;-63
2021/06/14 08:43:49;;;;;;;9.15;1.08;;;;;;;;;;1902695;67;20080;-62
2021/06/14 08:46:16;;;;;;;6.13;1.13;;;;;;;;;;1901709;67;20084;-64
2021/06/14 08:48:43;;;;;;;6.00;1.17;;;;;;;;;;1907025;67;20088;-63
2021/06/14 08:51:09;;;;;;;4.85;0.90;;;;;;;;;;1903380;67;20096;-64
2021/06/14 08:53:36;;;;;;;3.70;0.63;;;;;;;;;;1902598;67;20515;-63
2021/06/14 08:56:03;;;;;;;6.05;0.95;;;;;;;;;;1902072;67;20407;-63
2021/06/14 08:58:29;;;;;;;7.30;1.20;;;;;;;;;;1902352;67;20119;-64
2021/06/14 09:00:56;;;;;;;4.18;0.80;;;;;;;;;;1901851;67;20085;-63
2021/06/14 09:03:28;;;;;;;6.85;0.93;;;;;;;;;;1903056;67;20081;-64
2021/06/14 09:05:54;;;;;;;;;;;;;;;;;;1903191;67;20092;-62
2021/06/14 09:08:23;;;;;;;5.32;1.05;;;;;;;;;;1902194;67;19961;-63
2021/06/14 09:10:50;;;;;;;7.47;1.20;;;;;;;;;;1902498;67;20123;-61
2021/06/14 09:13:27;;;;;;;7.53;0.82;;;;;;;;;;1903355;67;20483;-66
2021/06/14 09:16:03;;;;;;;12.23;1.33;;;;;;;;;;1904105;67;20132;-63
2021/06/14 09:18:28;;;;;;;6.18;1.10;;;;;;;;;;1902080;75;20093;-65
2021/06/14 09:20:55;;;;;;;7.63;0.88;;;;;;;;;;1902144;67;20089;-64
2021/06/14 09:23:22;;;;;;;5.80;1.52;;;;;;;;;;1902695;67;20081;-65
2021/06/14 09:25:48;;;;;;;6.03;1.08;;;;;;;;;;1901378;67;20081;-65
2021/06/14 09:28:14;;;;;;;6.47;1.25;;;;;;;;;;1904234;75;20100;-66
2021/06/14 09:30:39;;;;;;;5.15;1.17;;;;;;;;;;1902200;67;20089;-64
2021/06/14 09:33:09;;;;;;;8.18;1.13;;;;;;;;;;1901772;67;20081;-63
2021/06/14 09:35:40;;;;;;;8.55;1.15;;;;;;;;;;1902051;75;20508;-65
2021/06/14 09:38:10;;;;;;;8.73;1.15;;;;;;;;;;1902819;67;20150;-64
2021/06/14 09:40:39;;;;;;;5.82;0.90;;;;;;;;;;1901983;67;20088;-63
2021/06/14 09:43:06;;;;;;;5.28;1.20;;;;;;;;;;1904013;67;20143;-58
2021/06/14 09:45:33;;;;;;;4.63;1.13;;;;;;;;;;1904067;67;20459;-58
2021/06/14 09:47:59;;;;;;;5.22;1.30;;;;;;;;;;1902770;67;20089;-58
2021/06/14 09:50:30;;;;;;;8.23;1.58;;;;;;;;;;1905941;67;20096;-58
2021/06/14 09:53:11;;;;;;;9.85;1.20;;;;;;;;;;1902693;67;20092;-58
2021/06/14 09:55:37;;;;;;;7.82;1.20;;;;;;;;;;1901939;67;20089;-58
2021/06/14 09:58:20;;;;;;;6.60;1.38;;;;;;;;;;1902213;67;20095;-58
2021/06/14 10:00:54;;;;;;;4.43;0.93;;;;;;;;;;1901733;67;20088;-58
2021/06/14 10:03:25;;;;;;;8.35;1.20;;;;;;;;;;1902960;75;20092;-57
2021/06/14 10:05:53;;;;;;;8.80;1.35;;;;;;;;;;1902729;75;20406;-58
2021/06/14 10:08:31;;;;;;;4.85;1.00;;;;;;;;;;1902887;67;20077;-58
2021/06/14 10:11:08;;;;;;;6.55;1.17;;;;;;;;;;1903097;67;20184;-58
2021/06/14 10:13:37;;;;;;;5.88;1.38;;;;;;;;;;1901822;67;20597;-62
2021/06/14 10:16:05;;;;;;;6.60;1.17;;;;;;;;;;1901823;67;20275;-63
2021/06/14 10:18:34;;;;;;;9.15;1.45;;;;;;;;;;1901831;67;20093;-62
2021/06/14 10:21:01;;;;;;;7.63;1.35;;;;;;;;;;1902848;67;20162;-61
2021/06/14 10:23:27;;;;;;;9.32;1.25;;;;;;;;;;1901036;75;20174;-64
2021/06/14 10:25:57;;;;;;;6.75;0.95;;;;;;;;;;1901742;67;20104;-66
2021/06/14 10:28:23;;;;;;;5.32;1.15;;;;;;;;;;1901359;67;20100;-65
2021/06/14 10:30:49;;;;;;;6.28;1.05;;;;;;;;;;1901315;67;20099;-65
2021/06/14 10:33:15;;;;;;;8.13;1.45;;;;;;;;;;1902389;67;20095;-65
2021/06/14 10:35:41;;;;;;;3.53;0.80;;;;;;;;;;1902899;67;20080;-65
2021/06/14 10:38:07;;;;;;;7.38;1.50;;;;;;;;;;1902896;67;20146;-64
2021/06/14 10:40:35;;;;;;;7.43;1.20;;;;;;;;;;1903353;67;20081;-64
2021/06/14 10:43:01;;;;;;;6.53;1.10;;;;;;;;;;1904213;67;20084;-65
2021/06/14 10:45:30;;;;;;;5.07;1.10;;;;;;;;;;1901869;67;22109;-64
2021/06/14 10:47:56;;;;;;;7.57;1.08;;;;;;;;;;1900798;67;20124;-65
2021/06/14 10:50:24;;;;;;;9.15;1.27;;;;;;;;;;1902259;67;20156;-65
2021/06/14 10:52:50;;;;;;;11.32;1.83;;;;;;;;;;1902501;67;20084;-64
2021/06/14 10:55:18;;;;;;;8.02;1.17;;;;;;;;;;1903256;67;20447;-65
2021/06/14 10:57:44;;;;;;;5.85;1.30;;;;;;;;;;1903713;67;20096;-64
2021/06/14 11:00:29;;;;;;;8.65;1.55;;;;;;;;;;1901266;67;20089;-64
2021/06/14 11:03:12;;;;;;;8.63;1.38;;;;;;;;;;1902612;67;20081;-64
2021/06/14 11:05:42;;;;;;;9.30;1.25;;;;;;;;;;1904259;67;20100;-64
2021/06/14 11:08:12;;;;;;;7.90;1.23;;;;;;;;;;1902922;67;20080;-64
2021/06/14 11:10:37;;;;;;;7.88;1.40;;;;;;;;;;1902329;67;20254;-64
2021/06/14 11:13:11;;;;;;;9.27;1.00;;;;;;;;;;1902070;67;20186;-58
2021/06/14 11:15:39;;;;;;;10.23;1.50;;;;;;;;;;1901906;67;20107;-59
2021/06/14 11:18:07;;;;;;;7.10;1.20;;;;;;;;;;1901799;67;20077;-58
2021/06/14 11:20:38;;;;;;;11.98;1.65;;;;;;;;;;1902088;67;20080;-58
2021/06/14 11:23:05;;;;;;;9.05;1.63;;;;;;;;;;1901494;67;20100;-57
2021/06/14 11:25:41;;;;;;;7.38;1.52;;;;;;;;;;1901689;67;20400;-57
2021/06/14 11:28:10;;;;;;;5.05;1.15;;;;;;;;;;1902303;67;20089;-57
2021/06/14 11:30:49;;;;;;;9.48;1.30;;;;;;;;;;1903527;67;20081;-57
2021/06/14 11:33:26;;;;;;;8.05;1.70;;;;;;;;;;1902046;67;20085;-57
2021/06/14 11:35:52;;;;;;;7.05;1.33;;;;;;;;;;1904240;75;20554;-60
2021/06/14 11:38:21;;;;;;;11.32;1.48;;;;;;;;;;1902678;75;20081;-57
2021/06/14 11:40:52;;;;;;;9.00;1.50;;;;;;;;;;1903162;67;20154;-57
2021/06/14 11:43:18;;;;;;;9.60;1.90;;;;;;;;;;1903333;67;20119;-63
2021/06/14 11:45:49;;;;;;;10.82;1.80;;;;;;;;;;1902425;67;20085;-64
2021/06/14 11:48:23;;;;;;;6.95;1.25;;;;;;;;;;1902136;67;20444;-64
2021/06/14 11:51:00;;;;;;;5.53;1.00;;;;;;;;;;1904296;67;20092;-62
2021/06/14 11:53:26;;;;;;;9.50;1.38;;;;;;;;;;1903105;67;20080;-64
2021/06/14 11:55:51;;;;;;;13.05;1.98;;;;;;;;;;1902132;67;20091;-64
2021/06/14 11:58:18;;;;;;;8.00;1.55;;;;;;;;;;1902915;67;20099;-63
2021/06/14 12:00:45;;;;;;;9.68;1.38;;;;;;;;;;1902988;67;20084;-63
2021/06/14 12:03:20;;;;;;;10.70;1.40;;;;;;;;;;1902830;75;20396;-63
2021/06/14 12:05:47;;;;;;;6.45;0.98;;;;;;;;;;1901999;67;20134;-63
2021/06/14 12:08:20;;;;;;;8.93;1.20;;;;;;;;;;1902070;67;20084;-65
2021/06/14 12:10:47;;;;;;;7.10;1.52;;;;;;;;;;1902889;75;20152;-63
2021/06/14 12:13:16;;;;;;;10.95;1.52;;;;;;;;;;1902314;67;20103;-64
2021/06/14 12:15:42;;;;;;;7.90;1.27;;;;;;;;;;1902988;67;20134;-66
2021/06/14 12:18:08;;;;;;;10.65;2.05;;;;;;;;;;1902249;67;20146;-64
2021/06/14 12:20:36;;;;;;;6.85;1.13;;;;;;;;;;1901803;67;20171;-66
2021/06/14 12:23:05;;;;;;;9.13;1.60;;;;;;;;;;1903052;67;20089;-66
2021/06/14 12:25:32;;;;;;;6.95;2.05;;;;;;;;;;1902382;67;20193;-65
2021/06/14 12:28:05;;;;;;;7.00;1.35;;;;;;;;;;1904475;60;20640;-65
2021/06/14 12:30:30;;;;;;;9.27;2.00;;;;;;;;;;1903174;67;20174;-65
2021/06/14 12:32:57;;;;;;;6.28;1.38;;;;;;;;;;1903089;67;20140;-64
2021/06/14 12:35:23;;;;;;;8.13;1.45;;;;;;;;;;1903016;67;20133;-64
2021/06/14 12:37:50;;;;;;;6.55;1.38;;;;;;;;;;1901882;67;20088;-63
2021/06/14 12:40:25;;;;;;;7.82;1.70;;;;;;;;;;1903473;67;20110;-64
2021/06/14 12:42:59;;;;;;;7.18;1.35;;;;;;;;;;1903337;67;20404;-58
2021/06/14 12:45:25;;;;;;;8.07;2.15;;;;;;;;;;1902991;67;20404;-58
2021/06/14 12:47:53;;;;;;;9.93;1.50;;;;;;;;;;1902065;67;20089;-59
2021/06/14 12:50:25;;;;;;;11.95;1.83;;;;;;;;;;1903379;67;20160;-60
2021/06/14 12:52:52;;;;;;;11.98;1.95;;;;;;;;;;1903563;67;20084;-59
2021/06/14 12:55:41;;;;;;;7.38;1.48;;;;;;;;;;1904032;75;20092;-59
2021/06/14 12:58:16;;;;;;;6.70;1.60;;;;;;;;;;1902553;67;20142;-60
2021/06/14 13:00:52;;;;;;;10.25;2.13;;;;;;;;;;1904678;67;20107;-60
2021/06/14 13:03:18;;;;;;;11.00;2.00;;;;;;;;;;1902167;75;20146;-60
2021/06/14 13:05:46;;;;;;;6.85;1.52;;;;;;;;;;1903389;67;20109;-60
2021/06/14 13:08:17;;;;;;;9.93;1.65;;;;;;;;;;1902178;67;20089;-57
2021/06/14 13:10:48;;;;;;;8.07;1.50;;;;;;;;;;1902801;67;20116;-59
2021/06/14 13:13:20;;;;;;;6.32;1.58;;;;;;;;;;1902047;67;20142;-64
2021/06/14 13:15:50;;;;;;;8.73;1.70;;;;;;;;;;1902554;67;20097;-63
2021/06/14 13:18:18;;;;;;;8.63;1.70;;;;;;;;;;1903930;67;20098;-65
2021/06/14 13:20:47;;;;;;;16.67;1.73;;;;;;;;;;1902429;67;20081;-67
2021/06/14 13:23:17;;;;;;;9.55;1.58;;;;;;;;;;1903046;67;20181;-66
2021/06/14 13:25:46;;;;;;;14.00;2.30;;;;;;;;;;1902754;75;20095;-66
2021/06/14 13:28:41;;;;;;;10.65;1.33;;;;;;;;;;1904231;67;20077;-66
2021/06/14 13:31:16;;;;;;;5.82;1.42;;;;;;;;;;1901673;67;20091;-65
2021/06/14 13:36:12;;;;;;;9.55;1.63;;;;;;;;;;1903136;67;20103;-67
2021/06/14 13:38:40;;;;;;;13.32;2.05;;;;;;;;;;1902601;67;20497;-63
2021/06/14 13:41:08;;;;;;;9.43;1.92;;;;;;;;;;1902735;67;20111;-65
2021/06/14 13:43:35;;;;;;;12.50;1.73;;;;;;;;;;1902773;67;20348;-66
2021/06/14 13:46:04;;;;;;;10.93;2.20;;;;;;;;;;1902665;67;20080;-65
2021/06/14 13:48:47;;;;;;;9.82;1.65;;;;;;;;;;1902104;67;20464;-65
2021/06/14 13:51:18;;;;;;;11.57;1.88;;;;;;;;;;1901618;67;20135;-64
2021/06/14 13:53:46;;;;;;;7.20;1.58;;;;;;;;;;1902866;67;20096;-65
2021/06/14 13:56:13;;;;;;;5.65;1.75;;;;;;;;;;1901674;67;20146;-66
2021/06/14 13:58:41;;;;;;;6.90;1.55;;;;;;;;;;1901952;67;20085;-65
2021/06/14 14:01:18;;;;;;;10.73;1.75;;;;;;;;;;1903821;67;20424;-65
2021/06/14 14:03:56;;;;;;;10.57;1.80;;;;;;;;;;1902079;75;20085;-64
2021/06/14 14:06:22;;;;;;;9.18;1.67;;;;;;;;;;1903859;67;20081;-66
2021/06/14 14:08:47;;;;;;;13.82;1.95;;;;;;;;;;1903008;59;20088;-66
2021/06/14 14:11:13;;;;;;;9.73;1.83;;;;;;;;;;1902642;67;20229;-66
2021/06/14 14:13:38;;;;;;;12.80;1.98;;;;;;;;;;1902101;67;20092;-64
2021/06/14 14:16:05;;;;;;;11.88;1.75;;;;;;;;;;1902125;67;20093;-66
2021/06/14 14:18:31;;;;;;;10.63;2.55;;;;;;;;;;1901929;67;20092;-65
2021/06/14 14:20:57;;;;;;;8.60;1.70;;;;;;;;;;1902437;67;20385;-68
2021/06/14 14:23:22;;;;;;;6.45;1.38;;;;;;;;;;1901872;67;20111;-66
2021/06/14 14:25:48;;;;;;;9.35;1.55;;;;;;;;;;1902406;67;20515;-67
2021/06/14 14:28:14;;;;;;;10.30;1.90;;;;;;;;;;1902713;67;20096;-67
2021/06/14 14:30:48;;;;;;;8.52;1.42;;;;;;;;;;1902014;67;20106;-65
2021/06/14 14:33:15;;;;;;;7.72;2.20;;;;;;;;;;1901308;67;20084;-65
2021/06/14 14:35:50;;;;;;;7.35;1.70;;;;;;;;;;1901529;75;20099;-66
2021/06/14 14:38:19;;;;;;;7.50;1.60;;;;;;;;;;1901721;67;20467;-64
2021/06/14 14:40:45;;;;;;;7.10;1.58;;;;;;;;;;1901387;67;20100;-65
2021/06/14 14:43:12;;;;;;;7.38;1.40;;;;;;;;;;1901842;67;20528;-67
2021/06/14 14:45:40;;;;;;;10.68;2.03;;;;;;;;;;1901904;67;20080;-65
2021/06/14 14:48:08;;;;;;;7.65;1.35;;;;;;;;;;1902267;75;20497;-66
2021/06/14 14:50:43;;;;;;;7.50;1.77;;;;;;;;;;1903460;67;20127;-66
2021/06/14 14:53:09;;;;;;;17.33;1.90;;;;;;;;;;1901221;67;20123;-64
2021/06/14 14:55:39;;;;;;;12.30;1.80;;;;;;;;;;1901577;67;20081;-65